createdAt,value
2022-08-11T00:02:37.034Z,7.40
2022-08-11T00:05:11.944Z,10.63
2022-08-11T00:07:48.698Z,8.93
2022-08-11T00:10:20.329Z,8.63
2022-08-11T00:12:54.387Z,9.00
2022-08-11T00:15:24.186Z,6.50
2022-08-11T00:17:58.919Z,9.15
2022-08-11T00:20:33.020Z,9.30
2022-08-11T00:23:08.665Z,8.55
2022-08-11T00:25:42.153Z,9.73
2022-08-11T00:28:28.182Z,7.45
2022-08-11T00:30:59.505Z,7.75
2022-08-11T00:33:43.453Z,10.27
2022-08-11T00:36:16.256Z,9.35
2022-08-11T00:38:50.659Z,9.60
2022-08-11T00:41:32.863Z,10.38
2022-08-11T00:44:28.490Z,9.45
2022-08-11T00:47:06.624Z,13.05
2022-08-11T00:49:53.657Z,7.32
2022-08-11T00:52:37.708Z,6.82
2022-08-11T00:55:47.019Z,9.85
2022-08-11T00:58:51.870Z,8.98
2022-08-11T01:01:35.584Z,11.02
2022-08-11T01:04:41.052Z,9.80
2022-08-11T01:08:01.953Z,13.07
2022-08-11T01:11:17.258Z,8.52
2022-08-11T01:14:33.561Z,7.15
2022-08-11T01:17:51.814Z,8.65
2022-08-11T01:20:53.822Z,9.75
2022-08-11T01:23:56.728Z,8.73
2022-08-11T01:27:03.369Z,10.30
2022-08-11T01:30:18.849Z,11.77
2022-08-11T01:33:36.495Z,9.43
2022-08-11T01:36:53.501Z,10.52
2022-08-11T01:40:03.469Z,10.57
2022-08-11T01:43:19.563Z,8.90
2022-08-11T01:45:57.386Z,11.70
2022-08-11T01:48:40.984Z,9.15
2022-08-11T01:51:26.087Z,9.55
2022-08-11T01:54:04.230Z,8.32
2022-08-11T01:56:46.793Z,14.02
2022-08-11T01:59:21.853Z,11.10
2022-08-11T02:02:20.690Z,12.35
2022-08-11T02:04:58.583Z,12.18
2022-08-11T02:07:38.963Z,9.07
2022-08-11T02:10:42.106Z,14.35
2022-08-11T02:13:36.485Z,11.15
2022-08-11T02:16:23.058Z,9.52
2022-08-11T02:19:14.318Z,10.27
2022-08-11T02:22:20.790Z,10.75
2022-08-11T02:24:59.473Z,13.25
2022-08-11T02:27:38.250Z,11.68
2022-08-11T02:30:12.201Z,10.95
2022-08-11T02:33:09.509Z,11.43
2022-08-11T02:35:48.941Z,11.40
2022-08-11T02:38:26.767Z,10.25
2022-08-11T02:41:24.539Z,12.63
2022-08-11T02:44:08.510Z,14.00
2022-08-11T02:46:49.536Z,14.55
2022-08-11T02:50:05.916Z,15.93
2022-08-11T02:52:46.844Z,13.98
2022-08-11T02:55:55.747Z,14.15
2022-08-11T02:58:27.900Z,12.85
2022-08-11T03:01:04.399Z,17.67
2022-08-11T03:03:39.381Z,18.67
2022-08-11T03:06:13.653Z,13.90
2022-08-11T03:09:01.282Z,13.27
2022-08-11T03:12:09.394Z,12.88
2022-08-11T03:15:06.770Z,11.88
2022-08-11T03:17:43.079Z,16.85
2022-08-11T03:20:37.992Z,10.98
2022-08-11T03:23:19.775Z,12.82
2022-08-11T03:25:58.078Z,12.63
2022-08-11T03:28:35.282Z,15.80
2022-08-11T03:31:20.335Z,17.52
2022-08-11T03:34:07.612Z,12.10
2022-08-11T03:37:16.107Z,10.48
2022-08-11T03:40:01.006Z,9.93
2022-08-11T03:42:34.953Z,11.82
2022-08-11T03:45:23.047Z,14.52
2022-08-11T03:48:15.976Z,15.70
2022-08-11T03:51:08.170Z,15.88
2022-08-11T03:54:04.999Z,14.93
2022-08-11T03:57:09.063Z,13.75
2022-08-11T04:00:20.555Z,15.10
2022-08-11T04:03:24.456Z,15.43
2022-08-11T04:06:55.896Z,16.30
2022-08-11T04:10:07.813Z,25.25
2022-08-11T04:13:24.682Z,14.50
2022-08-11T04:16:15.918Z,10.88
2022-08-11T04:19:35.298Z,13.98
2022-08-11T04:22:37.022Z,9.63
2022-08-11T04:25:58.035Z,12.07
2022-08-11T04:29:00.743Z,15.50
2022-08-11T04:31:44.033Z,14.93
2022-08-11T04:34:50.598Z,12.65
2022-08-11T04:38:00.511Z,11.75
2022-08-11T04:40:56.948Z,11.63
2022-08-11T04:44:05.797Z,12.75
2022-08-11T04:47:03.555Z,17.02
2022-08-11T04:50:20.179Z,14.55
2022-08-11T04:53:31.671Z,15.20
2022-08-11T04:56:48.041Z,12.82
2022-08-11T05:00:01.835Z,11.52
2022-08-11T05:03:19.163Z,14.05
2022-08-11T05:06:28.234Z,23.08
2022-08-11T05:09:29.654Z,8.93
2022-08-11T05:12:30.250Z,10.32
2022-08-11T05:15:17.839Z,12.55
2022-08-11T05:18:14.931Z,10.45
2022-08-11T05:21:10.737Z,8.52
2022-08-11T05:24:02.842Z,11.57
2022-08-11T05:26:59.426Z,12.32
2022-08-11T05:30:00.249Z,10.68
2022-08-11T05:32:59.389Z,8.90
2022-08-11T05:36:00.805Z,10.32
2022-08-11T05:38:50.936Z,12.57
2022-08-11T05:41:40.994Z,15.15
2022-08-11T05:44:28.956Z,9.80
2022-08-11T05:47:16.537Z,10.38
2022-08-11T05:50:13.606Z,16.02
2022-08-11T05:53:09.185Z,11.73
2022-08-11T05:56:03.721Z,9.15
2022-08-11T05:58:42.375Z,9.02
2022-08-11T06:04:04.255Z,9.43
2022-08-11T06:06:33.849Z,8.90
2022-08-11T06:09:03.341Z,7.55
2022-08-11T06:11:44.388Z,10.00
2022-08-11T06:14:16.565Z,11.57
2022-08-11T06:16:49.790Z,9.43
2022-08-11T06:19:23.210Z,9.15
2022-08-11T06:21:53.749Z,7.20
2022-08-11T06:24:24.069Z,8.27
2022-08-11T06:27:11.952Z,6.65
2022-08-11T06:32:31.078Z,8.82
2022-08-11T06:35:24.565Z,8.93
2022-08-11T06:38:07.444Z,9.98
2022-08-11T06:41:08.549Z,7.63
2022-08-11T06:43:55.400Z,9.57
2022-08-11T06:46:30.506Z,16.42
2022-08-11T06:49:02.736Z,10.80
2022-08-11T06:51:32.542Z,6.65
2022-08-11T06:54:05.386Z,7.32
2022-08-11T06:57:28.324Z,11.32
2022-08-11T07:00:09.931Z,9.40
2022-08-11T07:02:46.436Z,12.60
2022-08-11T07:05:24.328Z,9.25
2022-08-11T07:09:04.403Z,10.83
2022-08-11T07:12:18.487Z,7.13
2022-08-11T07:15:11.488Z,6.13
2022-08-11T07:17:49.407Z,9.75
2022-08-11T07:20:37.075Z,9.77
2022-08-11T07:23:27.505Z,7.95
2022-08-11T07:26:18.853Z,8.05
2022-08-11T07:28:59.172Z,5.22
2022-08-11T07:31:35.971Z,6.00
2022-08-11T07:34:19.126Z,10.13
2022-08-11T07:36:53.495Z,5.00
2022-08-11T07:39:24.371Z,10.10
2022-08-11T07:41:57.213Z,7.95
2022-08-11T07:44:34.425Z,8.40
2022-08-11T07:47:23.663Z,6.30
2022-08-11T07:50:12.330Z,8.60
2022-08-11T07:52:41.913Z,6.25
2022-08-11T07:55:16.892Z,6.03
2022-08-11T07:58:19.185Z,7.22
2022-08-11T08:01:10.461Z,6.05
2022-08-11T08:04:04.397Z,5.70
2022-08-11T08:06:52.431Z,5.63
2022-08-11T08:09:40.817Z,10.23
2022-08-11T08:12:29.043Z,9.82
2022-08-11T08:15:17.450Z,6.95
2022-08-11T08:18:20.537Z,6.40
2022-08-11T08:20:47.260Z,7.80
2022-08-11T08:23:17.639Z,7.90
2022-08-11T08:25:48.353Z,7.00
2022-08-11T08:28:18.889Z,5.13
2022-08-11T08:30:51.173Z,4.03
2022-08-11T08:33:23.076Z,7.75
2022-08-11T08:36:11.795Z,6.53
2022-08-11T08:38:49.261Z,7.75
2022-08-11T08:41:22.673Z,7.85
2022-08-11T08:43:57.872Z,5.45
2022-08-11T08:46:44.832Z,5.85
2022-08-11T08:49:19.675Z,4.32
2022-08-11T08:52:02.528Z,6.07
2022-08-11T08:54:46.047Z,5.03
2022-08-11T08:57:18.719Z,4.72
2022-08-11T08:59:51.452Z,5.30
2022-08-11T09:02:34.477Z,9.02
2022-08-11T09:05:06.498Z,6.82
2022-08-11T09:07:38.779Z,8.63
2022-08-11T09:10:11.706Z,6.07
2022-08-11T09:12:43.450Z,7.50
2022-08-11T09:15:14.961Z,7.18
2022-08-11T09:17:48.781Z,6.13
2022-08-11T09:20:21.407Z,5.88
2022-08-11T09:24:08.771Z,10.50
2022-08-11T09:26:21.721Z,7.03
2022-08-11T09:28:51.480Z,6.90
2022-08-11T09:31:22.804Z,9.73
2022-08-11T09:33:55.781Z,11.40
2022-08-11T09:36:42.741Z,11.15
2022-08-11T09:39:33.082Z,6.63
2022-08-11T09:42:04.507Z,9.20
2022-08-11T09:44:49.879Z,9.48
2022-08-11T09:47:24.801Z,6.53
2022-08-11T09:50:00.212Z,10.65
2022-08-11T09:52:33.636Z,6.28
2022-08-11T09:55:06.347Z,11.48
2022-08-11T09:57:52.468Z,7.10
2022-08-11T10:00:23.960Z,13.27
2022-08-11T10:02:56.738Z,8.88
2022-08-11T10:05:44.757Z,8.40
2022-08-11T10:08:15.644Z,7.78
2022-08-11T10:10:48.718Z,9.30
2022-08-11T10:14:30.492Z,8.52
2022-08-11T10:16:17.145Z,8.00
2022-08-11T10:18:53.210Z,10.35
2022-08-11T10:21:30.154Z,6.22
2022-08-11T10:24:19.280Z,5.28
2022-08-11T10:26:54.777Z,9.73
2022-08-11T10:29:50.060Z,13.07
2022-08-11T10:32:57.329Z,7.15
2022-08-11T10:35:29.279Z,6.63
2022-08-11T10:38:06.880Z,4.15
2022-08-11T10:40:40.835Z,2.83
2022-08-11T10:43:14.272Z,3.83
2022-08-11T10:46:15.491Z,5.32
2022-08-11T10:48:46.028Z,5.68
2022-08-11T10:51:49.953Z,2.90
2022-08-11T10:54:23.877Z,7.55
2022-08-11T10:57:12.188Z,3.72
2022-08-11T10:59:43.541Z,6.00
2022-08-11T11:02:16.529Z,2.92
2022-08-11T11:05:00.426Z,6.65
2022-08-11T11:07:43.990Z,3.20
2022-08-11T11:10:13.597Z,4.38
2022-08-11T11:13:08.587Z,3.45
2022-08-11T11:16:01.415Z,3.65
2022-08-11T11:18:36.153Z,2.58
2022-08-11T11:21:08.974Z,3.35
2022-08-11T11:23:42.800Z,2.42
2022-08-11T11:26:38.437Z,2.15
2022-08-11T11:29:40.652Z,3.63
2022-08-11T11:32:30.557Z,2.35
2022-08-11T11:35:27.944Z,2.17
2022-08-11T11:38:05.202Z,2.40
2022-08-11T11:40:37.469Z,2.78
2022-08-11T11:43:07.913Z,3.15
2022-08-11T11:45:37.113Z,4.97
2022-08-11T11:48:08.255Z,2.20
2022-08-11T11:50:39.268Z,2.58
2022-08-11T11:53:11.275Z,2.88
2022-08-11T11:55:41.706Z,4.70
2022-08-11T11:58:29.055Z,4.30
2022-08-11T12:01:19.899Z,1.48
2022-08-11T12:03:53.937Z,2.08
2022-08-11T12:06:27.668Z,2.10
2022-08-11T12:08:59.568Z,2.78
2022-08-11T12:11:48.169Z,2.63
2022-08-11T12:16:48.624Z,1.25
2022-08-11T12:19:24.757Z,2.67
2022-08-11T12:22:12.509Z,1.52
2022-08-11T12:25:00.869Z,2.33
2022-08-11T12:27:32.502Z,2.00
2022-08-11T12:30:06.548Z,2.92
2022-08-11T12:32:38.339Z,5.20
2022-08-11T12:35:12.003Z,5.57
2022-08-11T12:37:49.315Z,2.60
2022-08-11T12:41:12.147Z,3.08
2022-08-11T12:43:56.547Z,2.50
2022-08-11T12:46:33.933Z,3.15
2022-08-11T12:49:28.759Z,6.97
2022-08-11T12:52:14.547Z,3.42
2022-08-11T12:54:57.451Z,5.38
2022-08-11T12:57:51.031Z,3.20
2022-08-11T13:00:39.339Z,3.38
2022-08-11T13:03:29.153Z,4.05
2022-08-11T13:06:00.932Z,2.40
2022-08-11T13:08:34.273Z,2.53
2022-08-11T13:11:22.234Z,3.92
2022-08-11T13:13:57.081Z,4.95
2022-08-11T13:16:31.754Z,5.32
2022-08-11T13:19:02.402Z,1.67
2022-08-11T13:21:32.365Z,2.20
2022-08-11T13:24:03.866Z,2.45
2022-08-11T13:26:43.178Z,2.35
2022-08-11T13:29:20.543Z,2.60
2022-08-11T13:31:51.070Z,3.88
2022-08-11T13:34:21.565Z,2.45
2022-08-11T13:36:53.291Z,3.67
2022-08-11T13:39:26.256Z,4.60
2022-08-11T13:41:59.559Z,2.60
2022-08-11T13:44:31.426Z,3.20
2022-08-11T13:47:04.146Z,1.52
2022-08-11T13:49:36.296Z,3.90
2022-08-11T13:52:14.013Z,5.60
2022-08-11T13:54:48.042Z,0.80
2022-08-11T13:58:08.698Z,3.22
2022-08-11T14:00:13.282Z,1.40
2022-08-11T14:02:55.128Z,2.08
2022-08-11T14:05:29.306Z,2.17
2022-08-11T14:08:03.059Z,1.38
2022-08-11T14:10:39.196Z,2.55
2022-08-11T14:13:29.046Z,2.83
2022-08-11T14:16:18.602Z,1.55
2022-08-11T14:18:50.692Z,2.17
2022-08-11T14:21:39.961Z,2.22
2022-08-11T14:24:11.647Z,4.18
2022-08-11T14:26:45.295Z,1.58
2022-08-11T14:29:17.111Z,2.42
2022-08-11T14:31:50.107Z,2.80
2022-08-11T14:34:22.727Z,3.60
2022-08-11T14:36:54.381Z,2.03
2022-08-11T14:39:26.447Z,1.95
2022-08-11T14:42:16.925Z,2.17
2022-08-11T14:45:05.311Z,2.28
2022-08-11T14:47:36.998Z,1.88
2022-08-11T14:50:11.375Z,1.55
2022-08-11T14:52:49.716Z,3.42
2022-08-11T14:58:10.016Z,4.40
2022-08-11T15:00:40.440Z,1.67
2022-08-11T15:03:11.284Z,2.85
2022-08-11T15:05:56.659Z,3.05
2022-08-11T15:08:48.228Z,1.60
2022-08-11T15:11:36.617Z,2.72
2022-08-11T15:14:09.315Z,1.48
2022-08-11T15:17:00.065Z,2.80
2022-08-11T15:19:36.905Z,1.67
2022-08-11T15:22:28.969Z,1.98
2022-08-11T15:25:00.164Z,0.98
2022-08-11T15:27:48.845Z,1.33
2022-08-11T15:30:36.882Z,2.33
2022-08-11T15:33:25.637Z,3.50
2022-08-11T15:36:14.472Z,1.45
2022-08-11T15:38:54.941Z,1.58
2022-08-11T15:41:54.533Z,3.58
2022-08-11T15:45:05.701Z,3.78
2022-08-11T15:47:46.090Z,1.90
2022-08-11T15:50:18.986Z,1.77
2022-08-11T15:52:53.678Z,1.42
2022-08-11T15:55:24.593Z,3.40
2022-08-11T15:58:13.882Z,1.77
2022-08-11T16:01:04.136Z,1.38
2022-08-11T16:04:07.530Z,2.50
2022-08-11T16:06:47.463Z,2.20
2022-08-11T16:09:27.736Z,2.60
2022-08-11T16:12:04.435Z,2.47
2022-08-11T16:15:02.050Z,2.08
2022-08-11T16:17:41.630Z,3.10
2022-08-11T16:20:14.202Z,2.63
2022-08-11T16:23:00.267Z,1.90
2022-08-11T16:27:05.340Z,1.25
2022-08-11T16:28:25.630Z,1.65
2022-08-11T16:30:56.173Z,2.28
2022-08-11T16:33:49.916Z,1.00
2022-08-11T16:36:36.941Z,1.05
2022-08-11T16:39:07.895Z,2.72
2022-08-11T16:41:57.436Z,1.13
2022-08-11T16:44:45.706Z,1.88
2022-08-11T16:48:32.514Z,1.23
2022-08-11T16:50:11.980Z,1.98
2022-08-11T16:52:42.610Z,3.42
2022-08-11T16:55:11.868Z,1.38
2022-08-11T16:58:18.601Z,2.20
2022-08-11T17:00:52.260Z,2.83
2022-08-11T17:03:41.339Z,3.97
2022-08-11T17:06:29.893Z,3.70
2022-08-11T17:09:21.494Z,2.30
2022-08-11T17:12:13.932Z,2.67
2022-08-11T17:14:47.309Z,6.00
2022-08-11T17:17:19.664Z,10.35
2022-08-11T17:20:39.743Z,5.72
2022-08-11T17:23:00.291Z,3.72
2022-08-11T17:26:03.314Z,3.60
2022-08-11T17:28:24.560Z,1.55
2022-08-11T17:31:18.549Z,4.50
2022-08-11T17:34:11.487Z,3.25
2022-08-11T17:36:45.525Z,3.30
2022-08-11T17:39:16.417Z,3.45
2022-08-11T17:42:05.306Z,4.10
2022-08-11T17:44:56.470Z,2.88
2022-08-11T17:47:44.869Z,2.70
2022-08-11T17:50:17.687Z,2.58
2022-08-11T17:53:06.160Z,7.20
2022-08-11T17:55:55.992Z,4.30
2022-08-11T17:58:45.826Z,4.38
2022-08-11T18:03:56.300Z,4.78
2022-08-11T18:06:34.022Z,6.45
2022-08-11T18:09:24.190Z,8.15
2022-08-11T18:12:13.014Z,3.67
2022-08-11T18:15:06.033Z,3.65
2022-08-11T18:17:53.501Z,4.40
2022-08-11T18:20:41.824Z,6.53
2022-08-11T18:23:40.078Z,4.72
2022-08-11T18:26:38.148Z,11.38
2022-08-11T18:29:28.837Z,7.70
2022-08-11T18:32:22.080Z,7.47
2022-08-11T18:35:15.754Z,4.13
2022-08-11T18:38:06.023Z,4.80
2022-08-11T18:40:54.612Z,6.53
2022-08-11T18:46:32.371Z,7.25
2022-08-11T18:49:34.886Z,9.88
2022-08-11T18:52:36.708Z,5.72
2022-08-11T18:55:26.541Z,8.07
2022-08-11T18:58:15.701Z,11.43
2022-08-11T19:01:05.113Z,6.18
2022-08-11T19:03:54.327Z,7.53
2022-08-11T19:06:44.519Z,30.45
2022-08-11T19:09:33.641Z,15.52
2022-08-11T19:12:22.557Z,20.80
2022-08-11T19:15:11.720Z,17.08
2022-08-11T19:18:00.943Z,14.02
2022-08-11T19:20:49.959Z,11.80
2022-08-11T19:23:44.663Z,8.57
2022-08-11T19:26:32.347Z,8.68
2022-08-11T19:30:12.012Z,9.43
2022-08-11T19:32:30.823Z,36.42
2022-08-11T19:35:20.151Z,31.50
2022-08-11T19:38:07.899Z,18.58
2022-08-11T19:40:58.207Z,11.00
2022-08-11T19:43:49.403Z,6.65
2022-08-11T19:46:41.211Z,10.35
2022-08-11T19:49:29.028Z,6.55
2022-08-11T19:52:17.940Z,7.10
2022-08-11T19:55:07.681Z,5.18
2022-08-11T19:57:58.438Z,7.60
2022-08-11T20:00:47.197Z,8.82
2022-08-11T20:03:33.840Z,10.02
2022-08-11T20:06:24.638Z,13.02
2022-08-11T20:09:16.968Z,10.30
2022-08-11T20:12:08.525Z,10.48
2022-08-11T20:15:00.972Z,7.25
2022-08-11T20:17:51.527Z,7.70
2022-08-11T20:20:41.142Z,9.60
2022-08-11T20:23:30.908Z,14.88
2022-08-11T20:26:30.859Z,10.80
2022-08-11T20:29:20.276Z,8.98
2022-08-11T20:32:09.752Z,13.95
2022-08-11T20:34:58.645Z,9.38
2022-08-11T20:37:51.044Z,12.18
2022-08-11T20:40:42.865Z,7.53
2022-08-11T20:44:05.808Z,9.48
2022-08-11T20:46:41.648Z,8.25
2022-08-11T20:49:42.328Z,11.85
2022-08-11T20:55:52.315Z,7.65
2022-08-11T20:59:10.953Z,12.10
2022-08-11T21:01:45.292Z,8.52
2022-08-11T21:04:34.074Z,6.63
2022-08-11T21:10:23.195Z,13.27
2022-08-11T21:13:26.075Z,10.55
2022-08-11T21:16:26.091Z,9.57
2022-08-11T21:19:18.659Z,9.30
2022-08-11T21:22:08.092Z,5.45
2022-08-11T21:24:56.076Z,10.65
2022-08-11T21:27:44.722Z,9.50
2022-08-11T21:30:32.052Z,7.72
2022-08-11T21:33:21.065Z,9.75
2022-08-11T21:36:08.436Z,7.80
2022-08-11T21:38:57.926Z,7.40
2022-08-11T21:41:49.163Z,7.97
2022-08-11T21:44:37.076Z,8.43
2022-08-11T21:47:43.307Z,7.65
2022-08-11T21:50:30.697Z,24.58
2022-08-11T21:53:18.266Z,13.82
2022-08-11T21:56:06.848Z,7.78
2022-08-11T21:58:54.502Z,11.25
2022-08-11T22:01:42.028Z,7.18
2022-08-11T22:04:29.349Z,11.23
2022-08-11T22:07:16.197Z,9.93
2022-08-11T22:10:27.228Z,5.97
2022-08-11T22:13:11.411Z,8.13
2022-08-11T22:15:58.284Z,7.03
2022-08-11T22:18:46.550Z,8.35
2022-08-11T22:21:59.585Z,9.52
2022-08-11T22:24:46.205Z,9.40
2022-08-11T22:30:20.352Z,11.63
2022-08-11T22:33:07.049Z,6.78
2022-08-11T22:35:54.142Z,5.70
2022-08-11T22:38:41.450Z,7.13
2022-08-11T22:41:28.189Z,8.10
2022-08-11T22:44:14.836Z,11.30
2022-08-11T22:47:03.478Z,7.78
2022-08-11T22:49:57.163Z,8.38
2022-08-11T22:52:46.677Z,10.70
2022-08-11T22:55:34.478Z,14.32
2022-08-11T22:58:22.455Z,10.55
2022-08-11T23:01:09.774Z,9.82
2022-08-11T23:03:58.512Z,8.63
2022-08-11T23:06:46.302Z,9.35
2022-08-11T23:09:33.124Z,6.25
2022-08-11T23:12:19.817Z,7.68
2022-08-11T23:15:07.791Z,8.65
2022-08-11T23:17:54.872Z,7.22
2022-08-11T23:20:52.290Z,7.55
2022-08-11T23:23:40.736Z,7.78
2022-08-11T23:26:29.368Z,11.20
2022-08-11T23:29:17.383Z,10.18
2022-08-11T23:32:05.833Z,6.88
2022-08-11T23:35:37.289Z,11.57
2022-08-11T23:38:05.750Z,6.97
2022-08-11T23:40:52.077Z,6.28
2022-08-11T23:43:39.598Z,10.90
2022-08-11T23:46:26.013Z,11.93
2022-08-11T23:49:17.288Z,7.82
2022-08-11T23:52:04.401Z,8.40
2022-08-11T23:54:53.703Z,9.85
2022-08-11T23:57:47.714Z,11.27
